Flight Track Log - Related Links

Times and Time Zones

All times are in EDT time to prevent confusion due to time zone crossing. See the LYM375 flight status page for this flight to view local times or setup timezone preferences in your user account.

Time Position Orientation Groundspeed Altitude Reporting Facility
EDT Latitude Longitude Course Direction KTS MPH feet Rate Location/Type
Thu 10:27:09 AM 39.0508 -108.4325 112° Southeast 193 222 9,300  Level Denver Center
Thu 10:28:11 AM 39.1014 -108.4203 11° North 184 212 11,300 1,707 Climbing Denver Center
Thu 10:29:12 AM 39.1369 -108.3903 33° Northeast 190 219 12,800 1,512 Climbing Denver Center
Thu 10:30:14 AM 39.1925 -108.3569 25° Northeast 183 211 14,400 1,355 Climbing Denver Center
Thu 10:31:00 AM 39.1291 -108.5960 60° Northeast  Level FlightAware Approximate
Thu 10:31:16 AM 39.2411 -108.3278 25° Northeast 182 209 15,600  Level Denver Center
Thu 10:32:18 AM 39.2850 -108.2936 31° Northeast 186 214 16,800 1,065 Climbing Denver Center
Thu 10:33:20 AM 39.3169 -108.2322 56° Northeast 190 219 17,800 919 Climbing Denver Center
Thu 10:34:22 AM 39.3375 -108.1714 66° East 187 215 18,700 838 Climbing Denver Center
Thu 10:35:36 AM 39.3669 -108.1092 59° Northeast 188 216 19,700 838 Climbing Denver Center
Thu 10:36:38 AM 39.4058 -108.0422 53° Northeast 189 217 20,600 585 Climbing Denver Center
Thu 10:37:39 AM 39.4233 -107.9894 67° East 196 226 20,900 194 Climbing Denver Center
Thu 10:38:42 AM 39.4536 -107.9114 63° Northeast 216 249 21,000 96 Climbing Denver Center
Thu 10:39:44 AM 39.4864 -107.8278 63° Northeast 230 265 21,100 -48 Climbing Denver Center
Thu 10:40:46 AM 39.5172 -107.7522 62° Northeast 241 277 20,900  Descending Denver Center
Thu 10:42:00 AM 39.5503 -107.6603 65° Northeast 249 287 21,100 44 Climbing Denver Center
Thu 10:43:02 AM 39.5856 -107.5564 66° East 249 287 21,000 -97 Descending Denver Center
Thu 10:44:04 AM 39.6114 -107.4764 67° East 251 289 20,900 -48 Descending Denver Center
Thu 10:45:06 AM 39.6497 -107.3867 61° Northeast 253 291 20,900 48 Level Denver Center
Thu 10:46:08 AM 39.6747 -107.3036 69° East 258 297 21,000 48 Climbing Denver Center
Thu 10:47:10 AM 39.7144 -107.2286 55° Northeast 262 302 21,000 -48 Level Denver Center
Thu 10:48:12 AM 39.7586 -107.1431 56° Northeast 259 298 20,900 -48 Descending Denver Center
Thu 10:49:14 AM 39.7969 -107.0628 58° Northeast 260 299 20,900  Level Denver Center
Thu 10:50:16 AM 39.8236 -106.9761 68° East 256 295 20,900  Level Denver Center
Thu 10:51:18 AM 39.8508 -106.8897 68° East 257 296 20,900  Level Denver Center
Thu 10:52:20 AM 39.8792 -106.8033 67° East 257 296 20,900  Level Denver Center
Thu 10:53:23 AM 39.9122 -106.7194 63° Northeast 259 298 20,900 48 Level Denver Center
Thu 10:54:25 AM 39.9458 -106.6156 67° East 259 298 21,000 48 Climbing Denver Center
Thu 10:55:27 AM 39.9706 -106.5342 68° East 256 295 21,000  Level Denver Center
Thu 10:56:29 AM 40.0053 -106.4444 63° Northeast 258 297 21,000  Level Denver Center
Thu 10:57:31 AM 40.0614 -106.3872 38° Northeast 261 300 21,000 -48 Level Denver Center
Thu 10:58:33 AM 40.1236 -106.3369 32° Northeast 264 304 20,900  Descending Denver Center
Thu 10:59:35 AM 40.1792 -106.2742 41° Northeast 263 303 21,000 48 Climbing Denver Center
Thu 11:00:37 AM 40.2375 -106.1931 47° Northeast 256 295 21,000  Level Denver Center
Thu 11:01:39 AM 40.2942 -106.1339 39° Northeast 258 297 21,000 -48 Level Denver Center
Thu 11:02:41 AM 40.3589 -106.0881 28° Northeast 263 303 20,900  Descending Denver Center
Thu 11:03:43 AM 40.4131 -106.0261 41° Northeast 258 297 21,000  Climbing Denver Center
Thu 11:04:45 AM 40.4619 -105.9567 47° Northeast 257 296 20,900 48 Descending Denver Center
Thu 11:05:47 AM 40.5114 -105.8858 47° Northeast 263 303 21,100 97 Climbing Denver Center
Thu 11:06:49 AM 40.5361 -105.8036 68° East 269 310 21,100 -726 Level Denver Center
Thu 11:07:51 AM 40.5219 -105.7106 101° East 264 304 19,600 -1,597 Descending Denver Center
Thu 11:08:53 AM 40.4936 -105.5983 108° East 278 320 17,800 -1,306 Descending Denver Center
Thu 11:09:55 AM 40.4389 -105.5206 133° Southeast 283 326 16,900 -1,065 Descending Denver Center
Thu 11:10:57 AM 40.3814 -105.4414 134° Southeast 288 331 15,600 -1,258 Descending Denver Center
Thu 11:11:59 AM 40.3178 -105.3742 141° Southeast 272 313 14,300 -1,452 Descending Denver Center
Thu 11:13:01 AM 40.2639 -105.3100 138° Southeast 264 304 12,600 -1,645 Descending Denver Center
Thu 11:14:03 AM 40.2125 -105.2431 135° Southeast 262 302 10,900 -1,355 Descending Denver Center
Thu 11:15:05 AM 40.1547 -105.1742 138° Southeast 262 302 9,800 -1,258 Descending Denver Center
Thu 11:16:07 AM 40.1036 -105.1144 138° Southeast 250 288 8,300 -919 Descending Denver Center
Thu 11:17:09 AM 40.0469 -105.0658 147° Southeast 229 264 7,900 -309 Descending Denver Center
Thu 11:18:23 AM 39.9897 -105.0231 150° Southeast 235 270 7,600 -307 Descending Denver Center
Thu 11:19:26 AM 39.9211 -104.9839 156° South 223 257 7,200 -384 Descending Denver Center
Thu 11:20:28 AM 39.8786 -105.0208 214° Southwest 172 198 6,800 -441 Descending Denver Center
Thu 11:21:42 AM 39.8825 -105.0672 276° West 140 161 6,200 -529 Descending Denver Center
Thu 11:22:44 AM 39.9072 -105.1136 305° West 127 146 5,600 -581 Descending Denver Center
Thu 11:24:00 AM 39.9088 -105.1172 198° South  Level Estimated
Thu 11:31:00 AM 39.9088 -105.1172 303° West  Level Estimated
Thu 11:32:00 AM 39.9088 -105.1172 303° West  Level Estimated

Login

Don't have an account? Register now (free) for customized features, flight alerts, and more!